sensor_id;sensor_type;location;lat;lon;timestamp;temperature;humidity
42187;DHT22;27858;51.414;0.018;2024-01-27T00:02:07;4.90;99.90
42187;DHT22;27858;51.414;0.018;2024-01-27T00:04:36;4.90;99.90
42187;DHT22;27858;51.414;0.018;2024-01-27T00:07:06;4.80;99.90
42187;DHT22;27858;51.414;0.018;2024-01-27T00:09:33;4.70;99.90
42187;DHT22;27858;51.414;0.018;2024-01-27T00:12:00;4.70;99.90
42187;DHT22;27858;51.414;0.018;2024-01-27T00:14:27;4.70;99.90
42187;DHT22;27858;51.414;0.018;2024-01-27T00:16:54;4.70;99.90
42187;DHT22;27858;51.414;0.018;2024-01-27T00:19:21;4.70;99.90
42187;DHT22;27858;51.414;0.018;2024-01-27T00:21:48;4.80;99.90
42187;DHT22;27858;51.414;0.018;2024-01-27T00:24:15;4.80;99.90
42187;DHT22;27858;51.414;0.018;2024-01-27T00:26:43;4.80;99.90
42187;DHT22;27858;51.414;0.018;2024-01-27T00:29:10;4.80;99.90
42187;DHT22;27858;51.414;0.018;2024-01-27T00:31:37;4.80;99.90
42187;DHT22;27858;51.414;0.018;2024-01-27T00:34:04;4.70;99.90
42187;DHT22;27858;51.414;0.018;2024-01-27T00:36:31;4.70;99.90
42187;DHT22;27858;51.414;0.018;2024-01-27T00:38:58;4.70;99.90
42187;DHT22;27858;51.414;0.018;2024-01-27T00:41:24;4.70;99.90
42187;DHT22;27858;51.414;0.018;2024-01-27T00:43:51;4.70;99.90
42187;DHT22;27858;51.414;0.018;2024-01-27T00:46:18;4.70;99.90
42187;DHT22;27858;51.414;0.018;2024-01-27T00:48:45;4.70;99.90
42187;DHT22;27858;51.414;0.018;2024-01-27T00:51:12;4.80;99.90
42187;DHT22;27858;51.414;0.018;2024-01-27T00:53:39;4.80;99.90
42187;DHT22;27858;51.414;0.018;2024-01-27T00:56:07;4.90;99.90
42187;DHT22;27858;51.414;0.018;2024-01-27T00:58:34;4.80;99.90
42187;DHT22;27858;51.414;0.018;2024-01-27T01:01:01;4.70;99.90
42187;DHT22;27858;51.414;0.018;2024-01-27T01:03:28;4.70;99.90
42187;DHT22;27858;51.414;0.018;2024-01-27T01:05:55;4.70;99.90
42187;DHT22;27858;51.414;0.018;2024-01-27T01:08:22;4.70;99.90
42187;DHT22;27858;51.414;0.018;2024-01-27T01:10:48;4.80;99.90
42187;DHT22;27858;51.414;0.018;2024-01-27T01:13:15;4.80;99.90
42187;DHT22;27858;51.414;0.018;2024-01-27T01:15:42;4.80;99.90
42187;DHT22;27858;51.414;0.018;2024-01-27T01:18:09;4.80;99.90
42187;DHT22;27858;51.414;0.018;2024-01-27T01:20:36;4.70;99.90
42187;DHT22;27858;51.414;0.018;2024-01-27T01:23:03;4.80;99.90
42187;DHT22;27858;51.414;0.018;2024-01-27T01:25:29;4.80;99.90
42187;DHT22;27858;51.414;0.018;2024-01-27T01:27:57;4.70;99.90
42187;DHT22;27858;51.414;0.018;2024-01-27T01:30:24;4.70;99.90
42187;DHT22;27858;51.414;0.018;2024-01-27T01:32:51;4.60;99.90
42187;DHT22;27858;51.414;0.018;2024-01-27T01:35:18;4.50;99.90
42187;DHT22;27858;51.414;0.018;2024-01-27T01:37:45;4.30;99.90
42187;DHT22;27858;51.414;0.018;2024-01-27T01:40:14;4.30;99.90
42187;DHT22;27858;51.414;0.018;2024-01-27T01:42:42;4.30;99.90
42187;DHT22;27858;51.414;0.018;2024-01-27T01:45:11;4.10;99.90
42187;DHT22;27858;51.414;0.018;2024-01-27T01:47:39;4.20;99.90
42187;DHT22;27858;51.414;0.018;2024-01-27T01:50:08;4.20;99.90
42187;DHT22;27858;51.414;0.018;2024-01-27T01:52:36;4.20;99.90
42187;DHT22;27858;51.414;0.018;2024-01-27T01:55:03;4.30;99.90
42187;DHT22;27858;51.414;0.018;2024-01-27T01:57:33;4.20;99.90
42187;DHT22;27858;51.414;0.018;2024-01-27T02:00:00;4.30;99.90
42187;DHT22;27858;51.414;0.018;2024-01-27T02:02:27;4.30;99.90
42187;DHT22;27858;51.414;0.018;2024-01-27T02:04:53;4.40;99.90
42187;DHT22;27858;51.414;0.018;2024-01-27T02:07:20;4.50;99.90
42187;DHT22;27858;51.414;0.018;2024-01-27T02:09:47;4.60;99.90
42187;DHT22;27858;51.414;0.018;2024-01-27T02:12:14;4.70;99.90
42187;DHT22;27858;51.414;0.018;2024-01-27T02:14:41;4.70;99.90
42187;DHT22;27858;51.414;0.018;2024-01-27T02:17:07;4.70;99.90
42187;DHT22;27858;51.414;0.018;2024-01-27T02:19:34;4.80;99.90
42187;DHT22;27858;51.414;0.018;2024-01-27T02:22:02;4.80;99.90
42187;DHT22;27858;51.414;0.018;2024-01-27T02:24:29;4.80;99.90
42187;DHT22;27858;51.414;0.018;2024-01-27T02:26:56;4.80;99.90
42187;DHT22;27858;51.414;0.018;2024-01-27T02:29:23;4.80;99.90
42187;DHT22;27858;51.414;0.018;2024-01-27T02:31:49;4.80;99.90
42187;DHT22;27858;51.414;0.018;2024-01-27T02:34:16;4.80;99.90
42187;DHT22;27858;51.414;0.018;2024-01-27T02:36:43;4.90;99.90
42187;DHT22;27858;51.414;0.018;2024-01-27T02:39:10;4.80;99.90
42187;DHT22;27858;51.414;0.018;2024-01-27T02:41:37;4.70;99.90
42187;DHT22;27858;51.414;0.018;2024-01-27T02:44:06;4.70;99.90
42187;DHT22;27858;51.414;0.018;2024-01-27T02:46:32;4.70;99.90
42187;DHT22;27858;51.414;0.018;2024-01-27T02:48:59;4.70;99.90
42187;DHT22;27858;51.414;0.018;2024-01-27T02:51:26;4.70;99.90
42187;DHT22;27858;51.414;0.018;2024-01-27T02:53:53;4.70;99.90
42187;DHT22;27858;51.414;0.018;2024-01-27T02:56:20;4.60;99.90
42187;DHT22;27858;51.414;0.018;2024-01-27T02:58:46;4.60;99.90
42187;DHT22;27858;51.414;0.018;2024-01-27T03:01:13;4.60;99.90
42187;DHT22;27858;51.414;0.018;2024-01-27T03:03:40;4.50;99.90
42187;DHT22;27858;51.414;0.018;2024-01-27T03:06:08;4.40;99.90
42187;DHT22;27858;51.414;0.018;2024-01-27T03:08:34;4.40;99.90
42187;DHT22;27858;51.414;0.018;2024-01-27T03:11:01;4.40;99.90
42187;DHT22;27858;51.414;0.018;2024-01-27T03:13:28;4.30;99.90
42187;DHT22;27858;51.414;0.018;2024-01-27T03:15:55;4.20;99.90
42187;DHT22;27858;51.414;0.018;2024-01-27T03:18:22;4.20;99.90
42187;DHT22;27858;51.414;0.018;2024-01-27T03:20:51;4.10;99.90
42187;DHT22;27858;51.414;0.018;2024-01-27T03:23:18;4.10;99.90
42187;DHT22;27858;51.414;0.018;2024-01-27T03:25:46;4.10;99.90
42187;DHT22;27858;51.414;0.018;2024-01-27T03:28:13;4.00;99.90
42187;DHT22;27858;51.414;0.018;2024-01-27T03:30:40;3.90;99.90
42187;DHT22;27858;51.414;0.018;2024-01-27T03:33:06;3.80;99.90
42187;DHT22;27858;51.414;0.018;2024-01-27T03:35:37;3.80;99.90
42187;DHT22;27858;51.414;0.018;2024-01-27T03:38:05;3.80;99.90
42187;DHT22;27858;51.414;0.018;2024-01-27T03:40:32;3.80;99.90
42187;DHT22;27858;51.414;0.018;2024-01-27T03:42:59;3.80;99.90
42187;DHT22;27858;51.414;0.018;2024-01-27T03:45:25;3.80;99.90
42187;DHT22;27858;51.414;0.018;2024-01-27T03:47:52;3.80;99.90
42187;DHT22;27858;51.414;0.018;2024-01-27T03:50:20;3.70;99.90
42187;DHT22;27858;51.414;0.018;2024-01-27T03:52:46;3.70;99.90
42187;DHT22;27858;51.414;0.018;2024-01-27T03:55:13;3.80;99.90
42187;DHT22;27858;51.414;0.018;2024-01-27T03:57:40;3.90;99.90
42187;DHT22;27858;51.414;0.018;2024-01-27T04:00:07;3.90;99.90
42187;DHT22;27858;51.414;0.018;2024-01-27T04:02:34;4.00;99.90
42187;DHT22;27858;51.414;0.018;2024-01-27T04:05:01;4.10;99.90
42187;DHT22;27858;51.414;0.018;2024-01-27T04:07:28;4.20;99.90
42187;DHT22;27858;51.414;0.018;2024-01-27T04:09:55;4.10;99.90
42187;DHT22;27858;51.414;0.018;2024-01-27T04:12:21;4.10;99.90
42187;DHT22;27858;51.414;0.018;2024-01-27T04:14:48;4.10;99.90
42187;DHT22;27858;51.414;0.018;2024-01-27T04:17:15;4.10;99.90
42187;DHT22;27858;51.414;0.018;2024-01-27T04:19:42;4.10;99.90
42187;DHT22;27858;51.414;0.018;2024-01-27T04:22:09;4.10;99.90
42187;DHT22;27858;51.414;0.018;2024-01-27T04:24:36;4.00;99.90
42187;DHT22;27858;51.414;0.018;2024-01-27T04:27:03;4.00;99.90
42187;DHT22;27858;51.414;0.018;2024-01-27T04:29:30;3.90;99.90
42187;DHT22;27858;51.414;0.018;2024-01-27T04:31:56;3.90;99.90
42187;DHT22;27858;51.414;0.018;2024-01-27T04:34:23;3.70;99.90
42187;DHT22;27858;51.414;0.018;2024-01-27T04:36:50;3.70;99.90
42187;DHT22;27858;51.414;0.018;2024-01-27T04:39:19;3.70;99.90
42187;DHT22;27858;51.414;0.018;2024-01-27T04:41:45;3.60;99.90
42187;DHT22;27858;51.414;0.018;2024-01-27T04:44:12;3.50;99.90
42187;DHT22;27858;51.414;0.018;2024-01-27T04:46:39;3.50;99.90
42187;DHT22;27858;51.414;0.018;2024-01-27T04:49:06;3.40;99.90
42187;DHT22;27858;51.414;0.018;2024-01-27T04:51:32;3.40;99.90
42187;DHT22;27858;51.414;0.018;2024-01-27T04:53:59;3.30;99.90
42187;DHT22;27858;51.414;0.018;2024-01-27T04:56:26;3.30;99.90
42187;DHT22;27858;51.414;0.018;2024-01-27T04:58:53;3.30;99.90
42187;DHT22;27858;51.414;0.018;2024-01-27T05:01:20;3.30;99.90
42187;DHT22;27858;51.414;0.018;2024-01-27T05:03:47;3.30;99.90
42187;DHT22;27858;51.414;0.018;2024-01-27T05:06:14;3.30;99.90
42187;DHT22;27858;51.414;0.018;2024-01-27T05:08:41;3.30;99.90
42187;DHT22;27858;51.414;0.018;2024-01-27T05:11:09;3.30;99.90
42187;DHT22;27858;51.414;0.018;2024-01-27T05:13:35;3.30;99.90
42187;DHT22;27858;51.414;0.018;2024-01-27T05:16:04;3.40;99.90
42187;DHT22;27858;51.414;0.018;2024-01-27T05:18:31;3.30;99.90
42187;DHT22;27858;51.414;0.018;2024-01-27T05:20:58;3.40;99.90
42187;DHT22;27858;51.414;0.018;2024-01-27T05:23:25;3.40;99.90
42187;DHT22;27858;51.414;0.018;2024-01-27T05:25:52;3.40;99.90
42187;DHT22;27858;51.414;0.018;2024-01-27T05:28:19;3.50;99.90
42187;DHT22;27858;51.414;0.018;2024-01-27T05:30:46;3.40;99.90
42187;DHT22;27858;51.414;0.018;2024-01-27T05:33:12;3.40;99.90
42187;DHT22;27858;51.414;0.018;2024-01-27T05:35:39;3.50;99.90
42187;DHT22;27858;51.414;0.018;2024-01-27T05:38:06;3.50;99.90
42187;DHT22;27858;51.414;0.018;2024-01-27T05:40:33;3.40;99.90
42187;DHT22;27858;51.414;0.018;2024-01-27T05:43:00;3.50;99.90
42187;DHT22;27858;51.414;0.018;2024-01-27T05:45:26;3.40;99.90
42187;DHT22;27858;51.414;0.018;2024-01-27T05:47:53;3.40;99.90
42187;DHT22;27858;51.414;0.018;2024-01-27T05:50:20;3.40;99.90
42187;DHT22;27858;51.414;0.018;2024-01-27T05:52:48;3.40;99.90
42187;DHT22;27858;51.414;0.018;2024-01-27T05:55:15;3.30;99.90
42187;DHT22;27858;51.414;0.018;2024-01-27T05:57:43;3.30;99.90
42187;DHT22;27858;51.414;0.018;2024-01-27T06:00:11;3.30;99.90
42187;DHT22;27858;51.414;0.018;2024-01-27T06:02:38;3.30;99.90
42187;DHT22;27858;51.414;0.018;2024-01-27T06:05:05;3.30;99.90
42187;DHT22;27858;51.414;0.018;2024-01-27T06:07:32;3.30;99.90
42187;DHT22;27858;51.414;0.018;2024-01-27T06:09:59;3.30;99.90
42187;DHT22;27858;51.414;0.018;2024-01-27T06:12:26;3.30;99.90
42187;DHT22;27858;51.414;0.018;2024-01-27T06:14:53;3.30;99.90
42187;DHT22;27858;51.414;0.018;2024-01-27T06:17:19;3.30;99.90
42187;DHT22;27858;51.414;0.018;2024-01-27T06:19:46;3.30;99.90
42187;DHT22;27858;51.414;0.018;2024-01-27T06:22:13;3.30;99.90
42187;DHT22;27858;51.414;0.018;2024-01-27T06:24:42;3.30;99.90
42187;DHT22;27858;51.414;0.018;2024-01-27T06:27:11;3.30;99.90
42187;DHT22;27858;51.414;0.018;2024-01-27T06:29:38;3.30;99.90
42187;DHT22;27858;51.414;0.018;2024-01-27T06:32:06;3.30;99.90
42187;DHT22;27858;51.414;0.018;2024-01-27T06:34:36;3.30;99.90
42187;DHT22;27858;51.414;0.018;2024-01-27T06:37:03;3.20;99.90
42187;DHT22;27858;51.414;0.018;2024-01-27T06:39:31;3.30;99.90
42187;DHT22;27858;51.414;0.018;2024-01-27T06:41:58;3.20;99.90
42187;DHT22;27858;51.414;0.018;2024-01-27T06:44:25;3.20;99.90
42187;DHT22;27858;51.414;0.018;2024-01-27T06:46:51;3.20;99.90
42187;DHT22;27858;51.414;0.018;2024-01-27T06:49:18;3.20;99.90
42187;DHT22;27858;51.414;0.018;2024-01-27T06:51:46;3.20;99.90
42187;DHT22;27858;51.414;0.018;2024-01-27T06:54:13;3.20;99.90
42187;DHT22;27858;51.414;0.018;2024-01-27T06:56:40;3.20;99.90
42187;DHT22;27858;51.414;0.018;2024-01-27T06:59:07;3.10;99.90
42187;DHT22;27858;51.414;0.018;2024-01-27T07:01:34;3.10;99.90
42187;DHT22;27858;51.414;0.018;2024-01-27T07:04:01;3.10;99.90
42187;DHT22;27858;51.414;0.018;2024-01-27T07:06:28;3.00;99.90
42187;DHT22;27858;51.414;0.018;2024-01-27T07:08:55;3.00;99.90
42187;DHT22;27858;51.414;0.018;2024-01-27T07:11:21;3.00;99.90
42187;DHT22;27858;51.414;0.018;2024-01-27T07:13:48;2.90;99.90
42187;DHT22;27858;51.414;0.018;2024-01-27T07:16:15;2.90;99.90
42187;DHT22;27858;51.414;0.018;2024-01-27T07:18:42;2.90;99.90
42187;DHT22;27858;51.414;0.018;2024-01-27T07:21:14;2.90;99.90
42187;DHT22;27858;51.414;0.018;2024-01-27T07:23:42;2.90;99.90
42187;DHT22;27858;51.414;0.018;2024-01-27T07:26:10;2.90;99.90
42187;DHT22;27858;51.414;0.018;2024-01-27T07:28:37;3.00;99.90
42187;DHT22;27858;51.414;0.018;2024-01-27T07:31:08;2.90;99.90
42187;DHT22;27858;51.414;0.018;2024-01-27T07:33:34;3.00;99.90
42187;DHT22;27858;51.414;0.018;2024-01-27T07:36:01;3.10;99.90
42187;DHT22;27858;51.414;0.018;2024-01-27T07:38:28;3.00;99.90
42187;DHT22;27858;51.414;0.018;2024-01-27T07:40:55;3.20;99.90
42187;DHT22;27858;51.414;0.018;2024-01-27T07:43:25;3.20;99.90
42187;DHT22;27858;51.414;0.018;2024-01-27T07:45:52;3.20;99.90
42187;DHT22;27858;51.414;0.018;2024-01-27T07:48:20;3.20;99.90
42187;DHT22;27858;51.414;0.018;2024-01-27T07:50:47;3.20;99.90
42187;DHT22;27858;51.414;0.018;2024-01-27T07:53:16;3.30;99.90
42187;DHT22;27858;51.414;0.018;2024-01-27T07:55:43;3.40;99.90
42187;DHT22;27858;51.414;0.018;2024-01-27T07:58:10;3.30;99.90
42187;DHT22;27858;51.414;0.018;2024-01-27T08:00:37;3.40;99.90
42187;DHT22;27858;51.414;0.018;2024-01-27T08:03:04;3.50;99.90
42187;DHT22;27858;51.414;0.018;2024-01-27T08:05:31;3.60;99.90
42187;DHT22;27858;51.414;0.018;2024-01-27T08:07:58;3.60;99.90
42187;DHT22;27858;51.414;0.018;2024-01-27T08:10:25;3.60;99.90
42187;DHT22;27858;51.414;0.018;2024-01-27T08:12:52;3.80;99.90
42187;DHT22;27858;51.414;0.018;2024-01-27T08:15:19;3.80;99.90
42187;DHT22;27858;51.414;0.018;2024-01-27T08:17:46;3.80;99.90
42187;DHT22;27858;51.414;0.018;2024-01-27T08:20:12;3.80;99.90
42187;DHT22;27858;51.414;0.018;2024-01-27T08:22:40;3.80;99.90
42187;DHT22;27858;51.414;0.018;2024-01-27T08:25:07;3.90;99.90
42187;DHT22;27858;51.414;0.018;2024-01-27T08:27:33;3.90;99.90
42187;DHT22;27858;51.414;0.018;2024-01-27T08:30:00;3.90;99.90
42187;DHT22;27858;51.414;0.018;2024-01-27T08:32:27;4.00;99.90
42187;DHT22;27858;51.414;0.018;2024-01-27T08:34:54;4.00;99.90
42187;DHT22;27858;51.414;0.018;2024-01-27T08:37:21;4.10;99.90
42187;DHT22;27858;51.414;0.018;2024-01-27T08:39:48;4.30;99.90
42187;DHT22;27858;51.414;0.018;2024-01-27T08:42:17;4.40;99.90
42187;DHT22;27858;51.414;0.018;2024-01-27T08:44:44;4.50;99.90
42187;DHT22;27858;51.414;0.018;2024-01-27T08:47:11;4.60;99.90
42187;DHT22;27858;51.414;0.018;2024-01-27T08:49:38;4.70;99.90
42187;DHT22;27858;51.414;0.018;2024-01-27T08:52:05;4.70;99.90
42187;DHT22;27858;51.414;0.018;2024-01-27T08:54:31;4.80;99.90
42187;DHT22;27858;51.414;0.018;2024-01-27T08:56:58;4.90;99.90
42187;DHT22;27858;51.414;0.018;2024-01-27T08:59:25;5.00;99.90
42187;DHT22;27858;51.414;0.018;2024-01-27T09:01:52;5.10;99.90
42187;DHT22;27858;51.414;0.018;2024-01-27T09:04:19;5.20;99.90
42187;DHT22;27858;51.414;0.018;2024-01-27T09:06:46;5.10;99.90
42187;DHT22;27858;51.414;0.018;2024-01-27T09:09:13;5.20;99.90
42187;DHT22;27858;51.414;0.018;2024-01-27T09:11:40;5.30;99.90
42187;DHT22;27858;51.414;0.018;2024-01-27T09:14:07;5.30;99.90
42187;DHT22;27858;51.414;0.018;2024-01-27T09:16:34;5.30;99.90
42187;DHT22;27858;51.414;0.018;2024-01-27T09:19:01;5.40;99.90
42187;DHT22;27858;51.414;0.018;2024-01-27T09:21:28;5.50;99.90
42187;DHT22;27858;51.414;0.018;2024-01-27T09:23:58;5.60;99.90
42187;DHT22;27858;51.414;0.018;2024-01-27T09:26:24;5.70;99.90
42187;DHT22;27858;51.414;0.018;2024-01-27T09:28:51;5.70;99.90
42187;DHT22;27858;51.414;0.018;2024-01-27T09:31:24;5.70;99.90
42187;DHT22;27858;51.414;0.018;2024-01-27T09:33:53;5.80;99.90
42187;DHT22;27858;51.414;0.018;2024-01-27T09:36:20;5.80;99.90
42187;DHT22;27858;51.414;0.018;2024-01-27T09:38:47;5.90;99.90
42187;DHT22;27858;51.414;0.018;2024-01-27T09:41:14;6.10;99.90
42187;DHT22;27858;51.414;0.018;2024-01-27T09:43:45;6.20;99.90
42187;DHT22;27858;51.414;0.018;2024-01-27T09:46:16;6.10;99.90
42187;DHT22;27858;51.414;0.018;2024-01-27T09:48:44;6.20;99.90
42187;DHT22;27858;51.414;0.018;2024-01-27T09:51:11;6.30;99.90
42187;DHT22;27858;51.414;0.018;2024-01-27T09:53:39;6.30;99.90
42187;DHT22;27858;51.414;0.018;2024-01-27T09:56:06;6.30;99.90
42187;DHT22;27858;51.414;0.018;2024-01-27T09:58:33;6.40;99.90
42187;DHT22;27858;51.414;0.018;2024-01-27T10:01:01;6.40;99.90
42187;DHT22;27858;51.414;0.018;2024-01-27T10:03:28;6.50;99.90
42187;DHT22;27858;51.414;0.018;2024-01-27T10:05:57;6.60;99.90
42187;DHT22;27858;51.414;0.018;2024-01-27T10:08:24;6.50;99.90
42187;DHT22;27858;51.414;0.018;2024-01-27T10:10:54;6.70;99.90
42187;DHT22;27858;51.414;0.018;2024-01-27T10:13:22;6.60;99.90
42187;DHT22;27858;51.414;0.018;2024-01-27T10:16:06;6.80;99.90
42187;DHT22;27858;51.414;0.018;2024-01-27T10:18:34;6.80;99.90
42187;DHT22;27858;51.414;0.018;2024-01-27T10:21:21;6.90;99.90
42187;DHT22;27858;51.414;0.018;2024-01-27T10:23:50;7.00;99.90
42187;DHT22;27858;51.414;0.018;2024-01-27T10:26:17;7.00;99.90
42187;DHT22;27858;51.414;0.018;2024-01-27T10:28:55;7.10;99.90
42187;DHT22;27858;51.414;0.018;2024-01-27T10:31:35;7.10;99.90
42187;DHT22;27858;51.414;0.018;2024-01-27T10:34:04;7.10;99.90
42187;DHT22;27858;51.414;0.018;2024-01-27T10:36:42;7.20;99.90
42187;DHT22;27858;51.414;0.018;2024-01-27T10:39:23;7.20;99.90
42187;DHT22;27858;51.414;0.018;2024-01-27T10:41:51;7.30;99.90
42187;DHT22;27858;51.414;0.018;2024-01-27T10:44:19;7.30;99.90
42187;DHT22;27858;51.414;0.018;2024-01-27T10:46:48;7.40;99.90
42187;DHT22;27858;51.414;0.018;2024-01-27T10:49:17;7.50;99.90
42187;DHT22;27858;51.414;0.018;2024-01-27T10:51:46;7.60;99.90
42187;DHT22;27858;51.414;0.018;2024-01-27T10:54:19;7.60;99.90
42187;DHT22;27858;51.414;0.018;2024-01-27T10:56:47;7.70;99.90
42187;DHT22;27858;51.414;0.018;2024-01-27T10:59:15;7.80;99.90
42187;DHT22;27858;51.414;0.018;2024-01-27T11:01:47;7.90;99.90
42187;DHT22;27858;51.414;0.018;2024-01-27T11:04:17;7.90;99.90
42187;DHT22;27858;51.414;0.018;2024-01-27T11:06:47;7.90;99.90
42187;DHT22;27858;51.414;0.018;2024-01-27T11:09:15;8.00;99.90
42187;DHT22;27858;51.414;0.018;2024-01-27T11:11:43;8.00;99.90
42187;DHT22;27858;51.414;0.018;2024-01-27T11:14:11;8.10;99.90
42187;DHT22;27858;51.414;0.018;2024-01-27T11:16:38;8.20;99.90
42187;DHT22;27858;51.414;0.018;2024-01-27T11:19:11;8.20;99.90
42187;DHT22;27858;51.414;0.018;2024-01-27T11:21:39;8.20;99.90
42187;DHT22;27858;51.414;0.018;2024-01-27T11:24:17;8.30;99.90
42187;DHT22;27858;51.414;0.018;2024-01-27T11:26:44;8.30;99.90
42187;DHT22;27858;51.414;0.018;2024-01-27T11:29:11;8.30;99.90
42187;DHT22;27858;51.414;0.018;2024-01-27T11:31:48;8.30;99.90
42187;DHT22;27858;51.414;0.018;2024-01-27T11:34:18;8.30;99.90
42187;DHT22;27858;51.414;0.018;2024-01-27T11:36:47;8.30;99.90
42187;DHT22;27858;51.414;0.018;2024-01-27T11:39:28;8.30;99.90
42187;DHT22;27858;51.414;0.018;2024-01-27T11:42:14;8.40;99.90
42187;DHT22;27858;51.414;0.018;2024-01-27T11:44:42;8.50;99.90
42187;DHT22;27858;51.414;0.018;2024-01-27T11:47:19;8.40;99.90
42187;DHT22;27858;51.414;0.018;2024-01-27T11:49:53;8.50;99.90
42187;DHT22;27858;51.414;0.018;2024-01-27T11:52:21;8.40;99.90
42187;DHT22;27858;51.414;0.018;2024-01-27T11:54:59;8.40;99.90
42187;DHT22;27858;51.414;0.018;2024-01-27T11:57:27;8.40;99.90
42187;DHT22;27858;51.414;0.018;2024-01-27T11:59:54;8.50;99.90
42187;DHT22;27858;51.414;0.018;2024-01-27T12:02:22;8.50;99.90
42187;DHT22;27858;51.414;0.018;2024-01-27T12:04:49;8.50;99.90
42187;DHT22;27858;51.414;0.018;2024-01-27T12:07:16;8.60;99.90
42187;DHT22;27858;51.414;0.018;2024-01-27T12:09:50;8.60;99.90
42187;DHT22;27858;51.414;0.018;2024-01-27T12:12:17;8.60;99.90
42187;DHT22;27858;51.414;0.018;2024-01-27T12:14:48;8.60;99.90
42187;DHT22;27858;51.414;0.018;2024-01-27T12:17:16;8.60;99.90
42187;DHT22;27858;51.414;0.018;2024-01-27T12:19:50;8.70;99.90
42187;DHT22;27858;51.414;0.018;2024-01-27T12:22:27;8.60;99.90
42187;DHT22;27858;51.414;0.018;2024-01-27T12:24:55;8.80;99.90
42187;DHT22;27858;51.414;0.018;2024-01-27T12:27:23;8.80;99.90
42187;DHT22;27858;51.414;0.018;2024-01-27T12:29:50;8.80;99.90
42187;DHT22;27858;51.414;0.018;2024-01-27T12:32:17;8.90;99.90
42187;DHT22;27858;51.414;0.018;2024-01-27T12:34:45;8.80;99.90
42187;DHT22;27858;51.414;0.018;2024-01-27T12:37:12;8.90;99.90
42187;DHT22;27858;51.414;0.018;2024-01-27T12:39:43;8.90;99.90
42187;DHT22;27858;51.414;0.018;2024-01-27T12:42:11;8.90;99.90
42187;DHT22;27858;51.414;0.018;2024-01-27T12:44:39;8.80;99.90
42187;DHT22;27858;51.414;0.018;2024-01-27T12:47:06;8.90;99.90
42187;DHT22;27858;51.414;0.018;2024-01-27T12:49:35;8.90;99.90
42187;DHT22;27858;51.414;0.018;2024-01-27T12:52:02;8.90;99.90
42187;DHT22;27858;51.414;0.018;2024-01-27T12:54:29;8.80;99.90
42187;DHT22;27858;51.414;0.018;2024-01-27T12:56:56;8.80;99.90
42187;DHT22;27858;51.414;0.018;2024-01-27T12:59:23;8.80;99.90
42187;DHT22;27858;51.414;0.018;2024-01-27T13:01:50;8.80;99.90
42187;DHT22;27858;51.414;0.018;2024-01-27T13:04:17;8.70;99.90
42187;DHT22;27858;51.414;0.018;2024-01-27T13:06:44;8.70;99.90
42187;DHT22;27858;51.414;0.018;2024-01-27T13:09:11;8.80;99.90
42187;DHT22;27858;51.414;0.018;2024-01-27T13:11:40;8.90;99.90
42187;DHT22;27858;51.414;0.018;2024-01-27T13:14:08;8.70;99.90
42187;DHT22;27858;51.414;0.018;2024-01-27T13:16:36;8.80;99.90
42187;DHT22;27858;51.414;0.018;2024-01-27T13:19:03;8.90;99.90
42187;DHT22;27858;51.414;0.018;2024-01-27T13:21:30;9.00;99.90
42187;DHT22;27858;51.414;0.018;2024-01-27T13:23:57;9.10;99.90
42187;DHT22;27858;51.414;0.018;2024-01-27T13:26:24;9.20;99.90
42187;DHT22;27858;51.414;0.018;2024-01-27T13:28:53;9.10;99.90
42187;DHT22;27858;51.414;0.018;2024-01-27T13:31:20;9.10;99.90
42187;DHT22;27858;51.414;0.018;2024-01-27T13:33:47;9.10;99.90
42187;DHT22;27858;51.414;0.018;2024-01-27T13:36:15;8.90;99.90
42187;DHT22;27858;51.414;0.018;2024-01-27T13:38:43;8.80;99.90
42187;DHT22;27858;51.414;0.018;2024-01-27T13:41:10;8.80;99.90
42187;DHT22;27858;51.414;0.018;2024-01-27T13:43:36;8.80;99.90
42187;DHT22;27858;51.414;0.018;2024-01-27T13:46:03;8.80;99.90
42187;DHT22;27858;51.414;0.018;2024-01-27T13:48:31;8.80;99.90
42187;DHT22;27858;51.414;0.018;2024-01-27T13:50:58;9.00;99.90
42187;DHT22;27858;51.414;0.018;2024-01-27T13:53:25;9.10;99.90
42187;DHT22;27858;51.414;0.018;2024-01-27T13:56:09;9.10;99.90
42187;DHT22;27858;51.414;0.018;2024-01-27T13:58:36;9.10;99.90
42187;DHT22;27858;51.414;0.018;2024-01-27T14:01:03;9.10;99.90
42187;DHT22;27858;51.414;0.018;2024-01-27T14:03:30;9.30;99.90
42187;DHT22;27858;51.414;0.018;2024-01-27T14:05:57;9.40;99.90
42187;DHT22;27858;51.414;0.018;2024-01-27T14:08:24;9.40;99.90
42187;DHT22;27858;51.414;0.018;2024-01-27T14:10:51;9.40;99.90
42187;DHT22;27858;51.414;0.018;2024-01-27T14:13:19;9.40;99.90
42187;DHT22;27858;51.414;0.018;2024-01-27T14:15:46;9.30;99.90
42187;DHT22;27858;51.414;0.018;2024-01-27T14:18:13;9.30;99.90
42187;DHT22;27858;51.414;0.018;2024-01-27T14:20:48;9.40;99.90
42187;DHT22;27858;51.414;0.018;2024-01-27T14:23:15;9.40;99.90
42187;DHT22;27858;51.414;0.018;2024-01-27T14:25:42;9.30;99.90
42187;DHT22;27858;51.414;0.018;2024-01-27T14:28:13;9.30;99.90
42187;DHT22;27858;51.414;0.018;2024-01-27T14:30:40;9.20;99.90
42187;DHT22;27858;51.414;0.018;2024-01-27T14:33:08;9.20;99.90
42187;DHT22;27858;51.414;0.018;2024-01-27T14:35:35;9.20;99.90
42187;DHT22;27858;51.414;0.018;2024-01-27T14:38:02;9.00;99.90
42187;DHT22;27858;51.414;0.018;2024-01-27T14:40:29;9.00;99.90
42187;DHT22;27858;51.414;0.018;2024-01-27T14:42:58;9.00;99.90
42187;DHT22;27858;51.414;0.018;2024-01-27T14:45:25;9.10;99.90
42187;DHT22;27858;51.414;0.018;2024-01-27T14:47:52;9.00;99.90
42187;DHT22;27858;51.414;0.018;2024-01-27T14:50:24;9.00;99.90
42187;DHT22;27858;51.414;0.018;2024-01-27T14:52:52;9.10;99.90
42187;DHT22;27858;51.414;0.018;2024-01-27T14:55:19;9.10;99.90
42187;DHT22;27858;51.414;0.018;2024-01-27T14:57:46;9.10;99.90
42187;DHT22;27858;51.414;0.018;2024-01-27T15:00:13;9.10;99.90
42187;DHT22;27858;51.414;0.018;2024-01-27T15:02:43;9.10;99.90
42187;DHT22;27858;51.414;0.018;2024-01-27T15:05:11;9.10;99.90
42187;DHT22;27858;51.414;0.018;2024-01-27T15:07:38;9.20;99.90
42187;DHT22;27858;51.414;0.018;2024-01-27T15:10:06;9.10;99.90
42187;DHT22;27858;51.414;0.018;2024-01-27T15:12:33;9.10;99.90
42187;DHT22;27858;51.414;0.018;2024-01-27T15:15:01;9.10;99.90
42187;DHT22;27858;51.414;0.018;2024-01-27T15:17:27;9.00;99.90
42187;DHT22;27858;51.414;0.018;2024-01-27T15:19:54;9.10;99.90
42187;DHT22;27858;51.414;0.018;2024-01-27T15:22:22;9.10;99.90
42187;DHT22;27858;51.414;0.018;2024-01-27T15:24:49;9.00;99.90
42187;DHT22;27858;51.414;0.018;2024-01-27T15:27:16;9.10;99.90
42187;DHT22;27858;51.414;0.018;2024-01-27T15:29:43;9.20;99.90
42187;DHT22;27858;51.414;0.018;2024-01-27T15:32:10;9.20;99.90
42187;DHT22;27858;51.414;0.018;2024-01-27T15:34:36;9.30;99.90
42187;DHT22;27858;51.414;0.018;2024-01-27T15:37:04;9.20;99.90
42187;DHT22;27858;51.414;0.018;2024-01-27T15:39:31;9.10;99.90
42187;DHT22;27858;51.414;0.018;2024-01-27T15:41:58;9.10;99.90
42187;DHT22;27858;51.414;0.018;2024-01-27T15:44:28;9.00;99.90
42187;DHT22;27858;51.414;0.018;2024-01-27T15:46:55;9.00;99.90
42187;DHT22;27858;51.414;0.018;2024-01-27T15:49:26;9.00;99.90